createdAt,value
2023-04-02T00:01:02.307Z,6.00
2023-04-02T00:03:42.251Z,5.63
2023-04-02T00:06:32.482Z,6.23
2023-04-02T00:09:17.723Z,5.73
2023-04-02T00:11:48.444Z,5.30
2023-04-02T00:14:22.872Z,5.00
2023-04-02T00:16:49.571Z,5.67
2023-04-02T00:19:58.717Z,5.53
2023-04-02T00:22:29.243Z,5.90
2023-04-02T00:24:56.952Z,5.00
2023-04-02T00:27:23.544Z,5.03
2023-04-02T00:29:55.674Z,5.63
2023-04-02T00:32:26.441Z,5.73
2023-04-02T00:34:54.124Z,5.47
2023-04-02T00:37:23.932Z,5.83
2023-04-02T00:39:53.008Z,6.13
2023-04-02T00:42:19.934Z,5.23
2023-04-02T00:44:48.708Z,5.40
2023-04-02T00:47:24.239Z,5.37
2023-04-02T00:49:57.263Z,6.87
2023-04-02T00:52:27.740Z,8.57
2023-04-02T00:55:10.380Z,5.77
2023-04-02T00:57:37.329Z,5.87
2023-04-02T01:00:22.374Z,5.40
2023-04-02T01:03:16.237Z,5.50
2023-04-02T01:06:02.586Z,5.07
2023-04-02T01:08:47.261Z,4.37
2023-04-02T01:11:52.731Z,4.70
2023-04-02T01:14:57.980Z,5.20
2023-04-02T01:17:43.094Z,5.07
2023-04-02T01:20:38.313Z,4.63
2023-04-02T01:23:11.352Z,5.03
2023-04-02T01:25:52.079Z,5.37
2023-04-02T01:28:27.108Z,5.03
2023-04-02T01:30:57.187Z,4.50
2023-04-02T01:33:29.399Z,5.77
2023-04-02T01:36:26.118Z,5.70
2023-04-02T01:39:09.108Z,6.13
2023-04-02T01:41:54.764Z,4.90
2023-04-02T01:44:44.013Z,4.70
2023-04-02T01:47:13.183Z,4.70
2023-04-02T01:49:41.467Z,4.73
2023-04-02T01:52:09.033Z,4.40
2023-04-02T01:54:37.731Z,4.73
2023-04-02T01:57:05.203Z,4.50
2023-04-02T01:59:33.155Z,4.83
2023-04-02T02:02:05.432Z,4.77
2023-04-02T02:04:35.069Z,5.40
2023-04-02T02:07:02.442Z,5.20
2023-04-02T02:09:34.009Z,4.90
2023-04-02T02:12:02.751Z,5.00
2023-04-02T02:14:30.741Z,4.50
2023-04-02T02:17:01.950Z,5.77
2023-04-02T02:19:45.720Z,4.73
2023-04-02T02:22:36.985Z,4.93
2023-04-02T02:25:10.302Z,5.23
2023-04-02T02:28:01.491Z,5.07
2023-04-02T02:30:50.779Z,4.33
2023-04-02T02:33:25.299Z,4.83
2023-04-02T02:36:18.773Z,5.40
2023-04-02T02:38:57.450Z,4.93
2023-04-02T02:41:44.868Z,4.67
2023-04-02T02:44:20.825Z,5.27
2023-04-02T02:46:52.338Z,4.97
2023-04-02T02:49:28.221Z,5.17
2023-04-02T02:52:08.883Z,5.70
2023-04-02T02:55:05.983Z,4.80
2023-04-02T02:57:55.366Z,5.70
2023-04-02T03:00:26.282Z,6.17
2023-04-02T03:02:57.026Z,6.30
2023-04-02T03:05:28.347Z,6.27
2023-04-02T03:08:01.322Z,5.97
2023-04-02T03:10:41.855Z,5.43
2023-04-02T03:13:23.029Z,6.27
2023-04-02T03:16:11.393Z,5.60
2023-04-02T03:19:03.987Z,6.00
2023-04-02T03:21:37.746Z,5.80
2023-04-02T03:24:14.453Z,6.27
2023-04-02T03:26:49.592Z,6.27
2023-04-02T03:29:25.516Z,6.33
2023-04-02T03:32:00.175Z,5.87
2023-04-02T03:34:32.882Z,7.10
2023-04-02T03:37:14.249Z,6.40
2023-04-02T03:40:01.821Z,7.83
2023-04-02T03:42:41.711Z,6.37
2023-04-02T03:45:17.985Z,7.47
2023-04-02T03:48:03.935Z,6.80
2023-04-02T03:50:47.391Z,6.40
2023-04-02T03:53:13.817Z,7.17
2023-04-02T03:55:42.004Z,7.60
2023-04-02T03:58:29.035Z,6.90
2023-04-02T04:01:14.803Z,6.70
2023-04-02T04:03:49.352Z,6.50
2023-04-02T04:06:28.765Z,7.17
2023-04-02T04:09:07.675Z,8.40
2023-04-02T04:11:37.546Z,14.67
2023-04-02T04:14:16.098Z,8.40
2023-04-02T04:17:01.823Z,7.50
2023-04-02T04:19:37.863Z,9.53
2023-04-02T04:22:09.914Z,7.80
2023-04-02T04:24:39.319Z,9.67
2023-04-02T04:27:17.011Z,8.63
2023-04-02T04:29:55.265Z,8.87
2023-04-02T04:32:32.452Z,10.60
2023-04-02T04:35:21.185Z,9.77
2023-04-02T04:37:53.607Z,9.37
2023-04-02T04:40:24.178Z,13.27
2023-04-02T04:43:00.553Z,11.57
2023-04-02T04:46:03.429Z,12.43
2023-04-02T04:48:37.669Z,11.27
2023-04-02T04:51:25.513Z,10.70
2023-04-02T04:53:55.094Z,11.03
2023-04-02T04:56:28.320Z,10.07
2023-04-02T04:59:12.648Z,11.40
2023-04-02T05:01:54.638Z,19.03
2023-04-02T05:04:24.715Z,15.33
2023-04-02T05:07:11.920Z,10.43
2023-04-02T05:09:59.004Z,10.23
2023-04-02T05:12:39.658Z,12.03
2023-04-02T05:15:20.720Z,11.77
2023-04-02T05:18:17.995Z,11.10
2023-04-02T05:20:52.184Z,9.80
2023-04-02T05:23:28.073Z,13.83
2023-04-02T05:26:06.541Z,13.53
2023-04-02T05:28:38.254Z,10.77
2023-04-02T05:31:19.876Z,11.33
2023-04-02T05:33:48.967Z,11.00
2023-04-02T05:36:25.758Z,13.10
2023-04-02T05:38:57.774Z,10.87
2023-04-02T05:41:47.430Z,11.13
2023-04-02T05:44:41.624Z,11.93
2023-04-02T05:47:20.071Z,10.80
2023-04-02T05:49:53.036Z,9.67
2023-04-02T05:52:34.309Z,10.60
2023-04-02T05:55:35.835Z,9.80
2023-04-02T06:01:12.148Z,10.93
2023-04-02T06:03:50.488Z,11.07
2023-04-02T06:06:27.086Z,9.47
2023-04-02T06:09:00.865Z,12.90
2023-04-02T06:11:31.992Z,9.43
2023-04-02T06:14:00.331Z,9.27
2023-04-02T06:16:30.735Z,9.90
2023-04-02T06:18:57.916Z,10.30
2023-04-02T06:21:25.947Z,8.67
2023-04-02T06:24:03.447Z,9.93
2023-04-02T06:26:39.324Z,7.90
2023-04-02T06:29:22.379Z,8.37
2023-04-02T06:31:53.811Z,8.07
2023-04-02T06:34:24.286Z,8.20
2023-04-02T06:36:58.916Z,10.63
2023-04-02T06:39:27.120Z,10.33
2023-04-02T06:42:24.553Z,8.83
2023-04-02T06:45:03.782Z,8.60
2023-04-02T06:47:48.474Z,8.13
2023-04-02T06:51:05.374Z,11.80
2023-04-02T06:53:38.750Z,9.60
2023-04-02T06:56:33.289Z,7.00
2023-04-02T06:59:00.540Z,7.93
2023-04-02T07:01:30.888Z,7.50
2023-04-02T07:03:59.314Z,8.30
2023-04-02T07:06:34.673Z,7.20
2023-04-02T07:09:03.988Z,9.00
2023-04-02T07:11:30.706Z,7.97
2023-04-02T07:14:00.273Z,7.90
2023-04-02T07:16:28.958Z,7.20
2023-04-02T07:18:56.074Z,7.13
2023-04-02T07:21:23.831Z,8.57
2023-04-02T07:23:50.277Z,8.07
2023-04-02T07:26:18.674Z,9.73
2023-04-02T07:28:45.135Z,7.33
2023-04-02T07:31:24.318Z,6.90
2023-04-02T07:33:51.905Z,7.30
2023-04-02T07:36:21.353Z,7.50
2023-04-02T07:38:47.882Z,6.57
2023-04-02T07:41:15.396Z,7.70
2023-04-02T07:43:42.591Z,8.97
2023-04-02T07:46:11.594Z,6.57
2023-04-02T07:48:38.024Z,11.30
2023-04-02T07:51:04.601Z,6.70
2023-04-02T07:53:35.786Z,7.07
2023-04-02T07:56:03.960Z,6.80
2023-04-02T07:58:31.908Z,7.67
2023-04-02T08:00:59.739Z,6.50
2023-04-02T08:03:26.807Z,7.80
2023-04-02T08:05:58.105Z,6.93
2023-04-02T08:08:25.356Z,6.77
2023-04-02T08:10:51.758Z,7.33
2023-04-02T08:13:18.591Z,8.27
2023-04-02T08:15:45.629Z,7.40
2023-04-02T08:18:12.222Z,5.87
2023-04-02T08:20:38.613Z,6.57
2023-04-02T08:23:06.939Z,6.23
2023-04-02T08:25:33.499Z,7.33
2023-04-02T08:28:01.452Z,6.77
2023-04-02T08:30:27.792Z,9.20
2023-04-02T08:32:54.171Z,6.50
2023-04-02T08:35:20.684Z,5.90
2023-04-02T08:37:47.094Z,6.27
2023-04-02T08:40:22.988Z,7.03
2023-04-02T08:43:23.691Z,6.10
2023-04-02T08:46:08.257Z,6.80
2023-04-02T08:48:37.109Z,5.80
2023-04-02T08:51:05.838Z,10.03
2023-04-02T08:53:38.753Z,5.93
2023-04-02T08:56:17.697Z,6.93
2023-04-02T08:58:57.594Z,6.00
2023-04-02T09:01:39.841Z,5.83
2023-04-02T09:04:15.737Z,5.63
2023-04-02T09:06:43.840Z,6.03
2023-04-02T09:09:13.318Z,5.73
2023-04-02T09:12:04.232Z,6.80
2023-04-02T09:14:54.573Z,6.73
2023-04-02T09:17:26.261Z,5.50
2023-04-02T09:20:00.743Z,6.13
2023-04-02T09:22:30.000Z,5.40
2023-04-02T09:25:05.266Z,6.40
2023-04-02T09:27:35.367Z,5.60
2023-04-02T09:30:10.796Z,6.43
2023-04-02T09:32:49.072Z,6.67
2023-04-02T09:35:27.215Z,7.77
2023-04-02T09:38:08.923Z,7.07
2023-04-02T09:40:48.352Z,5.93
2023-04-02T09:43:23.979Z,6.03
2023-04-02T09:46:04.515Z,5.90
2023-04-02T09:48:34.440Z,6.60
2023-04-02T09:51:13.041Z,6.97
2023-04-02T09:53:48.958Z,7.07
2023-04-02T09:56:24.139Z,6.97
2023-04-02T09:59:15.183Z,6.87
2023-04-02T10:01:45.666Z,8.13
2023-04-02T10:04:33.937Z,6.17
2023-04-02T10:07:00.432Z,6.30
2023-04-02T10:09:35.446Z,6.80
2023-04-02T10:12:04.188Z,7.20
2023-04-02T10:14:45.859Z,5.37
2023-04-02T10:17:35.973Z,6.00
2023-04-02T10:20:11.358Z,5.47
2023-04-02T10:22:37.719Z,6.47
2023-04-02T10:25:14.410Z,6.30
2023-04-02T10:27:51.997Z,6.17
2023-04-02T10:30:28.549Z,5.77
2023-04-02T10:33:00.201Z,5.27
2023-04-02T10:35:44.850Z,5.70
2023-04-02T10:38:31.398Z,4.70
2023-04-02T10:41:06.803Z,5.10
2023-04-02T10:43:46.753Z,5.70
2023-04-02T10:46:24.929Z,5.47
2023-04-02T10:49:19.422Z,11.63
2023-04-02T10:51:54.909Z,7.40
2023-04-02T10:54:31.160Z,5.80
2023-04-02T10:57:07.994Z,6.47
2023-04-02T10:59:38.131Z,5.80
2023-04-02T11:02:20.563Z,5.53
2023-04-02T11:04:46.937Z,5.73
2023-04-02T11:07:24.367Z,4.80
2023-04-02T11:09:53.709Z,5.13
2023-04-02T11:12:39.776Z,4.87
2023-04-02T11:15:20.679Z,5.47
2023-04-02T11:17:48.085Z,5.00
2023-04-02T11:20:43.974Z,5.03
2023-04-02T11:23:17.599Z,5.53
2023-04-02T11:25:45.169Z,5.53
2023-04-02T11:28:31.769Z,6.93
2023-04-02T11:30:58.712Z,5.40
2023-04-02T11:33:37.652Z,4.90
2023-04-02T11:36:44.077Z,4.53
2023-04-02T11:39:17.490Z,4.77
2023-04-02T11:42:21.533Z,4.50
2023-04-02T11:44:47.864Z,4.23
2023-04-02T11:47:17.303Z,4.20
2023-04-02T11:49:56.313Z,4.50
2023-04-02T11:52:45.738Z,4.43
2023-04-02T11:55:30.577Z,5.37
2023-04-02T11:58:20.886Z,4.47
2023-04-02T12:01:07.772Z,5.53
2023-04-02T12:03:43.109Z,5.53
2023-04-02T12:06:48.405Z,5.07
2023-04-02T12:09:23.836Z,4.40
2023-04-02T12:11:56.420Z,4.43
2023-04-02T12:14:35.412Z,4.03
2023-04-02T12:17:13.624Z,4.53
2023-04-02T12:19:40.199Z,4.20
2023-04-02T12:22:18.512Z,4.57
2023-04-02T12:24:47.815Z,3.93
2023-04-02T12:27:22.289Z,5.60
2023-04-02T12:29:51.520Z,4.70
2023-04-02T12:32:29.074Z,5.30
2023-04-02T12:34:57.960Z,5.50
2023-04-02T12:37:29.521Z,4.33
2023-04-02T12:40:04.546Z,4.20
2023-04-02T12:42:34.087Z,4.57
2023-04-02T12:45:01.526Z,5.17
2023-04-02T12:47:29.189Z,4.50
2023-04-02T12:49:58.260Z,4.77
2023-04-02T12:52:28.685Z,6.33
2023-04-02T12:54:59.350Z,5.70
2023-04-02T12:57:25.694Z,5.90
2023-04-02T12:59:53.685Z,4.77
2023-04-02T13:02:25.407Z,6.13
2023-04-02T13:04:54.558Z,5.27
2023-04-02T13:07:25.245Z,10.13
2023-04-02T13:09:54.393Z,4.37
2023-04-02T13:12:35.630Z,4.03
2023-04-02T13:15:04.994Z,3.50
2023-04-02T13:17:43.216Z,4.37
2023-04-02T13:20:30.509Z,4.97
2023-04-02T13:22:59.047Z,4.90
2023-04-02T13:25:35.082Z,4.33
2023-04-02T13:28:01.861Z,4.57
2023-04-02T13:30:28.837Z,4.83
2023-04-02T13:32:56.189Z,5.00
2023-04-02T13:35:22.561Z,4.73
2023-04-02T13:37:49.032Z,5.27
2023-04-02T13:40:17.645Z,4.57
2023-04-02T13:42:45.526Z,4.90
2023-04-02T13:45:25.729Z,4.03
2023-04-02T13:47:52.716Z,4.50
2023-04-02T13:50:23.980Z,5.33
2023-04-02T13:52:51.282Z,4.67
2023-04-02T13:55:21.466Z,4.63
2023-04-02T13:57:48.429Z,4.13
2023-04-02T14:00:15.074Z,4.37
2023-04-02T14:02:47.340Z,4.77
2023-04-02T14:05:40.272Z,4.00
2023-04-02T14:08:21.243Z,5.40
2023-04-02T14:11:17.330Z,3.90
2023-04-02T14:13:55.627Z,4.10
2023-04-02T14:16:41.672Z,4.73
2023-04-02T14:19:20.901Z,4.30
2023-04-02T14:22:11.787Z,3.43
2023-04-02T14:25:09.530Z,4.13
2023-04-02T14:27:44.782Z,5.60
2023-04-02T14:30:21.200Z,4.17
2023-04-02T14:33:01.433Z,4.50
2023-04-02T14:35:37.182Z,4.33
2023-04-02T14:38:22.479Z,4.13
2023-04-02T14:41:43.183Z,3.80
2023-04-02T14:44:11.888Z,4.63
2023-04-02T14:46:39.022Z,4.33
2023-04-02T14:49:39.515Z,3.80
2023-04-02T14:52:13.639Z,3.33
2023-04-02T14:54:51.650Z,3.57
2023-04-02T14:57:38.471Z,4.37
2023-04-02T15:00:27.802Z,4.00
2023-04-02T15:03:02.835Z,3.83
2023-04-02T15:05:42.276Z,3.87
2023-04-02T15:08:32.797Z,4.37
2023-04-02T15:11:25.887Z,5.13
2023-04-02T15:14:00.201Z,3.97
2023-04-02T15:16:26.949Z,3.40
2023-04-02T15:18:57.156Z,3.53
2023-04-02T15:21:35.436Z,3.40
2023-04-02T15:24:24.876Z,3.97
2023-04-02T15:27:12.030Z,4.00
2023-04-02T15:30:12.809Z,3.63
2023-04-02T15:32:40.757Z,3.43
2023-04-02T15:35:43.613Z,3.77
2023-04-02T15:38:26.374Z,4.67
2023-04-02T15:41:01.726Z,3.90
2023-04-02T15:43:36.638Z,3.43
2023-04-02T15:46:23.002Z,4.33
2023-04-02T15:48:58.787Z,3.63
2023-04-02T15:51:54.150Z,4.27
2023-04-02T15:54:41.085Z,4.80
2023-04-02T15:57:24.522Z,4.53
2023-04-02T16:00:02.818Z,4.60
2023-04-02T16:03:08.611Z,4.47
2023-04-02T16:05:59.579Z,4.17
2023-04-02T16:08:41.365Z,5.40
2023-04-02T16:11:13.429Z,5.07
2023-04-02T16:13:41.631Z,4.60
2023-04-02T16:16:17.272Z,3.57
2023-04-02T16:19:16.552Z,4.23
2023-04-02T16:21:48.986Z,4.17
2023-04-02T16:24:15.555Z,3.27
2023-04-02T16:26:50.398Z,3.90
2023-04-02T16:29:47.129Z,5.17
2023-04-02T16:32:45.276Z,3.43
2023-04-02T16:35:41.680Z,4.57
2023-04-02T16:38:21.141Z,5.50
2023-04-02T16:41:28.255Z,4.50
2023-04-02T16:44:14.880Z,4.00
2023-04-02T16:46:56.199Z,3.73
2023-04-02T16:49:32.330Z,3.57
2023-04-02T16:52:27.552Z,3.50
2023-04-02T16:55:03.736Z,3.80
2023-04-02T16:57:48.788Z,4.20
2023-04-02T17:00:30.564Z,2.90
2023-04-02T17:03:41.818Z,3.37
2023-04-02T17:06:19.394Z,3.27
2023-04-02T17:09:13.817Z,3.77
2023-04-02T17:11:41.474Z,4.03
2023-04-02T17:14:24.256Z,5.17
2023-04-02T17:16:56.041Z,4.30
2023-04-02T17:19:26.047Z,3.97
2023-04-02T17:21:57.635Z,3.83
2023-04-02T17:24:28.311Z,4.07
2023-04-02T17:27:11.964Z,3.33
2023-04-02T17:29:41.759Z,3.73
2023-04-02T17:32:36.867Z,3.73
2023-04-02T17:35:34.401Z,3.97
2023-04-02T17:38:11.697Z,3.87
2023-04-02T17:40:48.854Z,3.70
2023-04-02T17:43:40.637Z,4.80
2023-04-02T17:46:24.368Z,3.90
2023-04-02T17:49:00.672Z,4.10
2023-04-02T17:51:46.111Z,4.27
2023-04-02T17:54:25.276Z,4.53
2023-04-02T17:57:06.952Z,4.30
2023-04-02T17:59:54.444Z,4.27
2023-04-02T18:02:38.805Z,4.20
2023-04-02T18:05:30.654Z,4.27
2023-04-02T18:08:12.389Z,3.77
2023-04-02T18:10:47.884Z,4.37
2023-04-02T18:13:32.586Z,4.30
2023-04-02T18:16:24.869Z,4.07
2023-04-02T18:18:57.266Z,4.10
2023-04-02T18:21:38.723Z,4.20
2023-04-02T18:24:21.998Z,4.00
2023-04-02T18:27:13.488Z,5.50
2023-04-02T18:29:42.826Z,4.47
2023-04-02T18:32:37.096Z,5.20
2023-04-02T18:35:15.771Z,4.40
2023-04-02T18:38:00.984Z,3.80
2023-04-02T18:40:41.766Z,5.60
2023-04-02T18:43:32.692Z,4.83
2023-04-02T18:46:09.750Z,5.43
2023-04-02T18:48:49.029Z,5.57
2023-04-02T18:51:23.891Z,5.60
2023-04-02T18:54:00.200Z,6.00
2023-04-02T18:56:26.853Z,5.93
2023-04-02T18:58:56.703Z,5.63
2023-04-02T19:01:47.327Z,6.30
2023-04-02T19:04:20.389Z,6.43
2023-04-02T19:06:56.840Z,6.60
2023-04-02T19:09:28.058Z,6.60
2023-04-02T19:11:54.461Z,6.37
2023-04-02T19:14:23.051Z,7.10
2023-04-02T19:17:07.415Z,6.73
2023-04-02T19:19:39.704Z,7.10
2023-04-02T19:22:34.013Z,6.07
2023-04-02T19:25:23.261Z,5.40
2023-04-02T19:27:59.633Z,5.90
2023-04-02T19:30:29.025Z,5.00
2023-04-02T19:33:09.763Z,5.30
2023-04-02T19:35:53.797Z,6.30
2023-04-02T19:38:41.445Z,5.53
2023-04-02T19:41:38.780Z,7.00
2023-04-02T19:44:11.279Z,5.80
2023-04-02T19:46:38.845Z,7.23
2023-04-02T19:49:12.460Z,7.57
2023-04-02T19:51:38.926Z,6.40
2023-04-02T19:54:05.430Z,10.07
2023-04-02T19:56:32.089Z,6.87
2023-04-02T19:59:02.258Z,5.77
2023-04-02T20:01:31.553Z,6.27
2023-04-02T20:03:58.085Z,8.90
2023-04-02T20:06:24.723Z,5.53
2023-04-02T20:08:51.284Z,5.93
2023-04-02T20:11:17.657Z,7.17
2023-04-02T20:13:44.134Z,6.80
2023-04-02T20:16:10.571Z,6.70
2023-04-02T20:18:37.375Z,6.73
2023-04-02T20:21:06.128Z,8.87
2023-04-02T20:23:33.570Z,8.07
2023-04-02T20:26:00.409Z,7.33
2023-04-02T20:28:27.545Z,8.00
2023-04-02T20:30:55.599Z,8.20
2023-04-02T20:33:24.201Z,8.40
2023-04-02T20:35:51.995Z,10.17
2023-04-02T20:38:18.904Z,9.97
2023-04-02T20:40:51.907Z,9.03
2023-04-02T20:43:18.742Z,9.10
2023-04-02T20:46:04.440Z,8.60
2023-04-02T20:48:32.213Z,8.87
2023-04-02T20:51:00.510Z,7.87
2023-04-02T20:53:29.224Z,9.17
2023-04-02T20:56:04.495Z,9.03
2023-04-02T20:58:31.017Z,8.67
2023-04-02T21:01:20.516Z,8.07
2023-04-02T21:03:47.983Z,8.20
2023-04-02T21:06:16.802Z,8.73
2023-04-02T21:08:43.992Z,8.10
2023-04-02T21:11:10.959Z,7.63
2023-04-02T21:13:37.925Z,9.37
2023-04-02T21:16:12.002Z,9.60
2023-04-02T21:18:38.441Z,8.80
2023-04-02T21:21:06.512Z,9.97
2023-04-02T21:23:33.681Z,8.60
2023-04-02T21:26:04.260Z,10.57
2023-04-02T21:28:30.802Z,15.47
2023-04-02T21:31:12.385Z,8.50
2023-04-02T21:33:53.739Z,11.53
2023-04-02T21:36:20.167Z,9.70
2023-04-02T21:38:49.609Z,16.80
2023-04-02T21:41:22.243Z,9.77
2023-04-02T21:43:49.324Z,10.30
2023-04-02T21:46:18.083Z,9.53
2023-04-02T21:48:45.517Z,8.63
2023-04-02T21:51:13.187Z,9.47
2023-04-02T21:53:40.757Z,11.30
2023-04-02T21:56:16.458Z,11.93
2023-04-02T21:58:43.785Z,13.13
2023-04-02T22:01:20.259Z,10.00
2023-04-02T22:03:53.515Z,17.63
2023-04-02T22:06:21.778Z,8.67
2023-04-02T22:08:56.176Z,9.30
2023-04-02T22:11:26.002Z,10.13
2023-04-02T22:13:52.540Z,11.67
2023-04-02T22:16:21.984Z,11.13
2023-04-02T22:18:50.385Z,9.97
2023-04-02T22:21:17.562Z,9.43
2023-04-02T22:23:45.417Z,9.93
2023-04-02T22:26:13.820Z,8.27
2023-04-02T22:28:40.304Z,9.73
2023-04-02T22:31:14.365Z,10.00
2023-04-02T22:33:41.377Z,9.57
2023-04-02T22:36:08.136Z,15.30
2023-04-02T22:38:34.739Z,11.27
2023-04-02T22:41:11.822Z,11.33
2023-04-02T22:43:39.423Z,11.60
2023-04-02T22:46:07.790Z,15.77
2023-04-02T22:48:34.626Z,10.97
2023-04-02T22:51:01.255Z,9.20
2023-04-02T22:53:28.062Z,9.87
2023-04-02T22:55:54.518Z,11.00
2023-04-02T22:58:21.712Z,9.17
2023-04-02T23:00:48.452Z,9.77
2023-04-02T23:03:14.825Z,11.00
2023-04-02T23:05:42.397Z,10.73
2023-04-02T23:08:08.880Z,11.33
2023-04-02T23:10:35.403Z,9.67
2023-04-02T23:13:01.881Z,10.60
2023-04-02T23:15:28.254Z,9.87
2023-04-02T23:17:54.676Z,14.03
2023-04-02T23:20:21.181Z,10.13
2023-04-02T23:22:47.535Z,12.17
2023-04-02T23:25:13.867Z,9.60
2023-04-02T23:27:40.311Z,13.73
2023-04-02T23:30:08.657Z,15.40
2023-04-02T23:32:35.354Z,17.93
2023-04-02T23:35:01.757Z,25.80
2023-04-02T23:37:28.154Z,14.03
2023-04-02T23:39:54.492Z,13.17
2023-04-02T23:42:20.942Z,16.57
2023-04-02T23:44:47.268Z,11.60
2023-04-02T23:47:13.725Z,20.30
2023-04-02T23:49:40.129Z,25.57
2023-04-02T23:52:06.491Z,33.00
2023-04-02T23:54:32.861Z,32.90
2023-04-02T23:56:59.216Z,25.47
2023-04-02T23:59:25.599Z,27.97
